Time;durP1;ratioP1;P1;durP2;ratioP2;P2;SDS_P1;SDS_P2;PMS_P1;PMS_P2;Temp;Humidity;BMP_temperature;BMP_pressure;BME280_temperature;BME280_humidity;BME280_pressure;Samples;Min_cycle;Max_cycle;Signal;HPM_P1;HPM_P2
2022/11/24 00:00:49;;;;;;;;;;;8.70;97.90;;;;;;5103261;28;19936;-78
2022/11/24 00:03:15;;;;;;;;;;;8.70;97.90;;;;;;5107776;27;19936;-77
2022/11/24 00:05:42;;;;;;;;;;;8.70;97.90;;;;;;5102585;28;19928;-78
2022/11/24 00:08:10;;;;;;;;;;;8.70;97.90;;;;;;5103658;28;19928;-77
2022/11/24 00:10:36;;;;;;;;;;;8.70;97.90;;;;;;5107558;28;20031;-76
2022/11/24 00:13:03;;;;;;;;;;;8.70;97.90;;;;;;5103218;27;19934;-77
2022/11/24 00:15:30;;;;;;;;;;;8.70;97.80;;;;;;5108276;28;19963;-76
2022/11/24 00:17:56;;;;;;;;;;;8.60;97.80;;;;;;5099411;28;19932;-78
2022/11/24 00:20:23;;;;;;;;;;;8.70;97.80;;;;;;5102040;28;19934;-76
2022/11/24 00:22:49;;;;;;;;;;;8.70;97.80;;;;;;5100389;28;19938;-77
2022/11/24 00:25:17;;;;;;;;;;;8.60;97.80;;;;;;5102413;28;19928;-77
2022/11/24 00:27:44;;;;;;;;;;;8.60;97.80;;;;;;5104575;28;19939;-76
2022/11/24 00:30:11;;;;;;;;;;;8.60;97.80;;;;;;5107486;27;19928;-78
2022/11/24 00:32:37;;;;;;;;;;;8.70;97.80;;;;;;5107615;28;19927;-77
2022/11/24 00:35:05;;;;;;;;;;;8.60;97.80;;;;;;5108197;28;19936;-77
2022/11/24 00:37:31;;;;;;;;;;;8.60;97.80;;;;;;5104705;28;19931;-78
2022/11/24 00:39:58;;;;;;;;;;;8.70;97.80;;;;;;5103104;28;19938;-76
2022/11/24 00:42:26;;;;;;;;;;;8.60;97.70;;;;;;5099950;28;19931;-77
2022/11/24 00:44:52;;;;;;;;;;;8.60;97.70;;;;;;5108634;27;19927;-76
2022/11/24 00:47:19;;;;;;;;;;;8.60;97.70;;;;;;5106280;28;19927;-77
2022/11/24 00:49:46;;;;;;;;;;;8.60;97.70;;;;;;5103772;28;19935;-77
2022/11/24 00:52:12;;;;;;;;;;;8.70;97.70;;;;;;5104923;28;20074;-77
2022/11/24 00:54:39;;;;;;;;;;;8.60;97.70;;;;;;5105347;28;20018;-78
2022/11/24 00:57:06;;;;;;;;;;;8.60;97.70;;;;;;5102551;28;19928;-77
2022/11/24 00:59:33;;;;;;;;;;;8.70;97.70;;;;;;5105969;28;19981;-77
2022/11/24 01:02:00;;;;;;;;;;;8.60;97.60;;;;;;5101224;28;19932;-78
2022/11/24 01:04:26;;;;;;;;;;;8.60;97.60;;;;;;5105557;28;19939;-78
2022/11/24 01:06:53;;;;;;;;;;;8.60;97.60;;;;;;5101931;28;19934;-77
2022/11/24 01:09:20;;;;;;;;;;;8.60;97.60;;;;;;5097804;28;19928;-76
2022/11/24 01:12:01;;;;;;;;;;;8.60;97.60;;;;;;5102539;27;20357;-79
2022/11/24 01:14:28;;;;;;;;;;;8.70;97.60;;;;;;5102081;28;19927;-76
2022/11/24 01:16:56;;;;;;;;;;;8.70;97.60;;;;;;5085176;28;20019;-77
2022/11/24 01:19:23;;;;;;;;;;;8.70;97.60;;;;;;5086427;28;19927;-75
2022/11/24 01:21:50;;;;;;;;;;;8.70;97.60;;;;;;5086471;28;19932;-79
2022/11/24 01:24:16;;;;;;;;;;;8.60;97.60;;;;;;5086765;28;19928;-77
2022/11/24 01:26:43;;;;;;;;;;;8.70;97.60;;;;;;5081058;28;20001;-78
2022/11/24 01:29:10;;;;;;;;;;;8.60;97.60;;;;;;5085216;28;19928;-77
2022/11/24 01:31:37;;;;;;;;;;;8.70;97.60;;;;;;5091278;28;19928;-77
2022/11/24 01:34:05;;;;;;;;;;;8.60;97.70;;;;;;5104360;28;19940;-78
2022/11/24 01:36:31;;;;;;;;;;;8.60;97.60;;;;;;5103100;28;20623;-77
2022/11/24 01:38:58;;;;;;;;;;;8.60;97.60;;;;;;5105388;28;19932;-78
2022/11/24 01:41:25;;;;;;;;;;;8.60;97.60;;;;;;5111768;28;19954;-79
2022/11/24 01:43:52;;;;;;;;;;;8.60;97.60;;;;;;5105419;28;20645;-76
2022/11/24 01:46:22;;;;;;;;;;;8.70;97.60;;;;;;5099068;28;19935;-78
2022/11/24 01:48:51;;;;;;;;;;;8.70;97.60;;;;;;5101834;28;19928;-78
2022/11/24 01:51:22;;;;;;;;;;;8.60;97.60;;;;;;5106880;28;20439;-76
2022/11/24 01:53:50;;;;;;;;;;;8.70;97.60;;;;;;5103948;28;19939;-78
2022/11/24 01:56:17;;;;;;;;;;;8.70;97.60;;;;;;5099492;28;19947;-77
2022/11/24 01:58:45;;;;;;;;;;;8.70;97.60;;;;;;5103801;28;19928;-77
2022/11/24 02:01:12;;;;;;;;;;;8.70;97.60;;;;;;5098918;28;19935;-77
2022/11/24 02:03:40;;;;;;;;;;;8.70;97.60;;;;;;5097663;28;19932;-76
2022/11/24 02:06:09;;;;;;;;;;;8.60;97.60;;;;;;5099102;28;20387;-77
2022/11/24 02:08:39;;;;;;;;;;;8.70;97.60;;;;;;5103802;28;19932;-77
2022/11/24 02:11:06;;;;;;;;;;;8.70;97.60;;;;;;5099315;28;19938;-78
2022/11/24 02:13:34;;;;;;;;;;;8.70;97.60;;;;;;5101674;28;20391;-77
2022/11/24 02:16:01;;;;;;;;;;;8.70;97.60;;;;;;5094685;28;19927;-78
2022/11/24 02:18:27;;;;;;;;;;;8.70;97.60;;;;;;5098090;28;19935;-77
2022/11/24 02:20:54;;;;;;;;;;;8.70;97.60;;;;;;5098411;28;19936;-77
2022/11/24 02:23:23;;;;;;;;;;;8.70;97.60;;;;;;5097295;28;19928;-76
2022/11/24 02:25:55;;;;;;;;;;;8.70;97.60;;;;;;5097629;28;19927;-76
2022/11/24 02:28:25;;;;;;;;;;;8.70;97.60;;;;;;5096639;28;19928;-78
2022/11/24 02:30:52;;;;;;;;;;;8.70;97.60;;;;;;5099873;28;19931;-77
2022/11/24 02:33:20;;;;;;;;;;;8.70;97.60;;;;;;5102639;28;19932;-76
2022/11/24 02:35:46;;;;;;;;;;;8.60;97.50;;;;;;5097628;28;19939;-76
2022/11/24 02:38:13;;;;;;;;;;;8.60;97.50;;;;;;5098204;27;19927;-78
2022/11/24 02:40:41;;;;;;;;;;;8.70;97.60;;;;;;5102039;27;19931;-76
2022/11/24 02:43:10;;;;;;;;;;;8.70;97.60;;;;;;5107278;27;19934;-77
2022/11/24 02:45:38;;;;;;;;;;;8.70;97.60;;;;;;5104894;27;19928;-76
2022/11/24 02:48:05;;;;;;;;;;;8.70;97.50;;;;;;5108455;27;19934;-76
2022/11/24 02:50:32;;;;;;;;;;;8.70;97.90;;;;;;5106263;28;19928;-77
2022/11/24 02:52:59;;;;;;;;;;;8.70;97.50;;;;;;5103385;28;19939;-77
2022/11/24 02:55:25;;;;;;;;;;;8.70;97.60;;;;;;5111258;27;19932;-77
2022/11/24 02:57:52;;;;;;;;;;;8.70;97.60;;;;;;5104375;28;19931;-76
2022/11/24 03:00:18;;;;;;;;;;;8.60;97.50;;;;;;5102746;28;19935;-78
2022/11/24 03:02:46;;;;;;;;;;;8.70;97.50;;;;;;5109309;27;20358;-78
2022/11/24 03:05:13;;;;;;;;;;;8.70;97.50;;;;;;5110930;27;19932;-78
2022/11/24 03:07:40;;;;;;;;;;;8.70;97.50;;;;;;5107954;27;19934;-78
2022/11/24 03:10:07;;;;;;;;;;;8.60;97.50;;;;;;5101353;28;19928;-77
2022/11/24 03:12:33;;;;;;;;;;;8.60;97.50;;;;;;5101051;28;19928;-77
2022/11/24 03:15:01;;;;;;;;;;;8.70;97.50;;;;;;5099013;27;19936;-77
2022/11/24 03:17:28;;;;;;;;;;;8.70;97.50;;;;;;5103855;27;19931;-77
2022/11/24 03:19:55;;;;;;;;;;;8.70;97.50;;;;;;5103494;27;19932;-76
2022/11/24 03:22:22;;;;;;;;;;;8.60;97.50;;;;;;5100568;27;19997;-78
2022/11/24 03:24:49;;;;;;;;;;;8.60;97.50;;;;;;5105937;27;19939;-78
2022/11/24 03:27:15;;;;;;;;;;;8.70;97.50;;;;;;5101410;28;19972;-79
2022/11/24 03:29:42;;;;;;;;;;;8.60;97.80;;;;;;5101685;27;19935;-79
2022/11/24 03:32:08;;;;;;;;;;;8.60;97.50;;;;;;5073198;28;19932;-79
2022/11/24 03:34:35;;;;;;;;;;;8.60;97.50;;;;;;5071921;28;19935;-78
2022/11/24 03:37:03;;;;;;;;;;;8.60;97.50;;;;;;5081791;28;19935;-78
2022/11/24 03:39:29;;;;;;;;;;;8.70;97.50;;;;;;5080533;28;20019;-78
2022/11/24 03:41:56;;;;;;;;;;;8.70;97.50;;;;;;5079746;28;19939;-79
2022/11/24 03:44:22;;;;;;;;;;;8.70;97.50;;;;;;5075518;28;19928;-79
2022/11/24 03:46:50;;;;;;;;;;;8.60;97.50;;;;;;5098871;28;19928;-78
2022/11/24 03:49:17;;;;;;;;;;;8.70;97.50;;;;;;5097673;28;19927;-77
2022/11/24 03:51:44;;;;;;;;;;;8.60;97.50;;;;;;5104782;28;20026;-79
2022/11/24 03:54:11;;;;;;;;;;;8.60;97.50;;;;;;5108813;28;19931;-78
2022/11/24 03:56:38;;;;;;;;;;;8.60;97.50;;;;;;5108179;28;19928;-77
2022/11/24 03:59:05;;;;;;;;;;;8.70;97.50;;;;;;5104595;28;19931;-78
2022/11/24 04:01:31;;;;;;;;;;;8.60;97.50;;;;;;5104568;28;19936;-77
2022/11/24 04:03:58;;;;;;;;;;;8.70;97.60;;;;;;5099991;28;19939;-77
2022/11/24 04:06:24;;;;;;;;;;;8.70;97.60;;;;;;5101737;28;19935;-78
2022/11/24 04:08:51;;;;;;;;;;;8.70;97.60;;;;;;5100078;28;19966;-78
2022/11/24 04:14:03;;;;;;;;;;;8.60;97.50;;;;;;5100087;28;19934;-78
2022/11/24 04:16:29;;;;;;;;;;;8.60;97.50;;;;;;5086541;28;19954;-77
2022/11/24 04:18:56;;;;;;;;;;;8.60;97.50;;;;;;5083675;28;20457;-78
2022/11/24 04:21:22;;;;;;;;;;;8.60;97.50;;;;;;5074484;28;19928;-77
2022/11/24 04:23:49;;;;;;;;;;;8.70;97.50;;;;;;5080756;28;19935;-77
2022/11/24 04:26:15;;;;;;;;;;;8.70;97.50;;;;;;5081711;28;20320;-78
2022/11/24 04:28:43;;;;;;;;;;;8.70;97.50;;;;;;5076069;28;20458;-78
2022/11/24 04:31:10;;;;;;;;;;;8.70;97.50;;;;;;5062718;28;20307;-78
2022/11/24 04:33:36;;;;;;;;;;;8.70;97.50;;;;;;5066942;28;19939;-78
2022/11/24 04:36:03;;;;;;;;;;;8.70;97.50;;;;;;5058896;28;19939;-78
2022/11/24 04:38:30;;;;;;;;;;;8.70;97.50;;;;;;5066937;28;20691;-78
2022/11/24 04:41:00;;;;;;;;;;;8.70;97.50;;;;;;5060070;28;19940;-78
2022/11/24 04:43:27;;;;;;;;;;;8.70;97.50;;;;;;5059690;28;19933;-77
2022/11/24 04:45:55;;;;;;;;;;;8.70;97.50;;;;;;5066314;28;19932;-78
2022/11/24 04:48:21;;;;;;;;;;;8.70;97.50;;;;;;5083199;28;19963;-78
2022/11/24 04:50:48;;;;;;;;;;;8.70;97.50;;;;;;5090458;28;19932;-78
2022/11/24 04:53:14;;;;;;;;;;;8.70;97.50;;;;;;5091672;28;20395;-78
2022/11/24 04:55:41;;;;;;;;;;;8.70;97.50;;;;;;5084817;28;20403;-79
2022/11/24 04:58:08;;;;;;;;;;;8.70;97.50;;;;;;5075876;28;19935;-78
2022/11/24 05:00:35;;;;;;;;;;;8.60;97.50;;;;;;5078087;28;20395;-78
2022/11/24 05:03:02;;;;;;;;;;;8.70;97.50;;;;;;5074560;28;19928;-78
2022/11/24 05:05:29;;;;;;;;;;;8.70;97.50;;;;;;5083907;28;20299;-78
2022/11/24 05:07:56;;;;;;;;;;;8.70;97.50;;;;;;5074623;28;19939;-78
2022/11/24 05:10:38;;;;;;;;;;;8.70;97.50;;;;;;5077528;28;19955;-78
2022/11/24 05:13:11;;;;;;;;;;;8.70;97.50;;;;;;5080928;28;19981;-77
2022/11/24 05:15:38;;;;;;;;;;;8.70;97.40;;;;;;5077843;28;19928;-78
2022/11/24 05:18:06;;;;;;;;;;;8.70;97.40;;;;;;5080503;28;19928;-77
2022/11/24 05:20:33;;;;;;;;;;;8.70;97.40;;;;;;5076302;28;20474;-78
2022/11/24 05:23:01;;;;;;;;;;;8.70;97.40;;;;;;5077135;28;20302;-78
2022/11/24 05:25:27;;;;;;;;;;;8.70;97.40;;;;;;5081118;28;19935;-77
2022/11/24 05:27:54;;;;;;;;;;;8.70;97.40;;;;;;5076660;28;20399;-77
2022/11/24 05:30:20;;;;;;;;;;;8.70;97.40;;;;;;5097763;28;19928;-78
2022/11/24 05:32:47;;;;;;;;;;;8.70;97.30;;;;;;5103512;28;20475;-80
2022/11/24 05:35:15;;;;;;;;;;;8.70;97.30;;;;;;5100313;28;20492;-78
2022/11/24 05:37:42;;;;;;;;;;;8.70;97.30;;;;;;5101618;28;19927;-78
2022/11/24 05:40:09;;;;;;;;;;;8.70;97.30;;;;;;5096165;28;19935;-77
2022/11/24 05:42:41;;;;;;;;;;;8.70;97.30;;;;;;5101149;28;19958;-77
2022/11/24 05:45:10;;;;;;;;;;;8.70;97.30;;;;;;5099350;28;19935;-78
2022/11/24 05:47:37;;;;;;;;;;;8.70;97.30;;;;;;5074080;28;19931;-77
2022/11/24 05:50:04;;;;;;;;;;;8.70;97.20;;;;;;5070216;28;20013;-77
2022/11/24 05:52:32;;;;;;;;;;;8.70;97.20;;;;;;5079551;28;19928;-77
2022/11/24 05:54:59;;;;;;;;;;;8.70;97.20;;;;;;5078583;28;19939;-78
2022/11/24 05:57:25;;;;;;;;;;;8.70;97.20;;;;;;5075739;28;20072;-77
2022/11/24 05:59:52;;;;;;;;;;;8.70;97.20;;;;;;5082563;28;19935;-78
2022/11/24 06:02:18;;;;;;;;;;;8.80;96.80;;;;;;5100972;28;19935;-77
2022/11/24 06:04:45;;;;;;;;;;;8.80;96.80;;;;;;5105235;28;19959;-78
2022/11/24 06:07:12;;;;;;;;;;;8.80;96.80;;;;;;5105488;28;19935;-78
2022/11/24 06:09:40;;;;;;;;;;;8.80;96.90;;;;;;5105159;28;19928;-78
2022/11/24 06:12:08;;;;;;;;;;;8.80;96.90;;;;;;5108291;28;19931;-78
2022/11/24 06:14:34;;;;;;;;;;;8.80;96.90;;;;;;5110291;28;19935;-78
2022/11/24 06:17:01;;;;;;;;;;;8.80;97.00;;;;;;5109725;28;19934;-78
2022/11/24 06:19:28;;;;;;;;;;;8.80;97.00;;;;;;5111042;28;19931;-79
2022/11/24 06:21:54;;;;;;;;;;;8.80;97.10;;;;;;5108367;28;19927;-78
2022/11/24 06:24:21;;;;;;;;;;;8.80;97.10;;;;;;5104776;28;19928;-78
2022/11/24 06:26:49;;;;;;;;;;;8.80;97.20;;;;;;5110564;28;19935;-78
2022/11/24 06:29:15;;;;;;;;;;;8.80;97.20;;;;;;5093727;28;20036;-78
2022/11/24 06:31:42;;;;;;;;;;;8.80;97.30;;;;;;5087235;28;20394;-78
2022/11/24 06:34:10;;;;;;;;;;;8.80;97.40;;;;;;5094576;28;19939;-79
2022/11/24 06:36:37;;;;;;;;;;;8.80;97.50;;;;;;5099073;28;19934;-78
2022/11/24 06:39:03;;;;;;;;;;;8.80;97.60;;;;;;5091830;28;20569;-77
2022/11/24 06:41:30;;;;;;;;;;;8.80;97.60;;;;;;5092317;28;19935;-77
2022/11/24 06:43:58;;;;;;;;;;;8.70;97.70;;;;;;5095163;28;19932;-78
2022/11/24 06:46:24;;;;;;;;;;;8.80;97.80;;;;;;5088834;28;19936;-77
2022/11/24 06:48:52;;;;;;;;;;;8.80;97.80;;;;;;5096412;28;19978;-78
2022/11/24 06:51:18;;;;;;;;;;;8.80;98.20;;;;;;5098063;28;19950;-79
2022/11/24 06:53:45;;;;;;;;;;;8.70;97.90;;;;;;5090790;28;20489;-78
2022/11/24 06:56:13;;;;;;;;;;;8.70;98.00;;;;;;5089861;28;20092;-77
2022/11/24 06:58:40;;;;;;;;;;;8.70;98.10;;;;;;5082680;28;19928;-77
2022/11/24 07:01:08;;;;;;;;;;;8.80;98.20;;;;;;5090552;28;20330;-79
2022/11/24 07:03:35;;;;;;;;;;;8.70;98.20;;;;;;5090806;28;19928;-78
2022/11/24 07:06:01;;;;;;;;;;;8.80;98.30;;;;;;5088841;28;19928;-77
2022/11/24 07:08:28;;;;;;;;;;;8.70;98.30;;;;;;5087833;28;20702;-78
2022/11/24 07:10:54;;;;;;;;;;;8.70;98.40;;;;;;5092020;28;19928;-78
2022/11/24 07:13:21;;;;;;;;;;;8.70;98.50;;;;;;5090892;28;19928;-77
2022/11/24 07:15:47;;;;;;;;;;;8.70;98.50;;;;;;5088002;28;19936;-79
2022/11/24 07:18:15;;;;;;;;;;;8.70;98.60;;;;;;5094133;28;19927;-78
2022/11/24 07:20:42;;;;;;;;;;;8.70;98.70;;;;;;5092464;28;19932;-77
2022/11/24 07:23:08;;;;;;;;;;;8.70;98.70;;;;;;5089606;28;19950;-77
2022/11/24 07:25:35;;;;;;;;;;;8.70;98.70;;;;;;5091535;28;20418;-78
2022/11/24 07:28:01;;;;;;;;;;;8.70;98.80;;;;;;5087723;28;19928;-77
2022/11/24 07:30:28;;;;;;;;;;;8.70;98.80;;;;;;5108878;28;19934;-77
2022/11/24 07:32:58;;;;;;;;;;;8.70;98.80;;;;;;5108888;28;19936;-78
2022/11/24 07:35:26;;;;;;;;;;;8.60;98.80;;;;;;5108329;28;19928;-77
2022/11/24 07:37:54;;;;;;;;;;;8.60;98.80;;;;;;5105712;28;19950;-78
2022/11/24 07:40:20;;;;;;;;;;;8.60;98.90;;;;;;5101427;28;19928;-77
2022/11/24 07:42:47;;;;;;;;;;;8.60;98.90;;;;;;5107342;28;19943;-78
2022/11/24 07:45:13;;;;;;;;;;;8.60;98.90;;;;;;5104772;27;19928;-78
2022/11/24 07:47:40;;;;;;;;;;;8.60;98.90;;;;;;5104065;28;19959;-78
2022/11/24 07:50:08;;;;;;;;;;;8.60;98.80;;;;;;5110033;28;19934;-78
2022/11/24 07:52:36;;;;;;;;;;;8.60;98.80;;;;;;5103179;28;20375;-78
2022/11/24 07:55:03;;;;;;;;;;;8.60;98.80;;;;;;5099554;28;19928;-78
2022/11/24 07:57:30;;;;;;;;;;;8.60;98.80;;;;;;5108452;28;21799;-78
2022/11/24 07:59:56;;;;;;;;;;;8.60;98.80;;;;;;5098383;28;19986;-78
2022/11/24 08:02:23;;;;;;;;;;;8.60;98.80;;;;;;5108267;28;19928;-78
2022/11/24 08:04:50;;;;;;;;;;;8.60;98.80;;;;;;5109180;28;19931;-78
2022/11/24 08:07:16;;;;;;;;;;;8.60;98.80;;;;;;5112247;28;19931;-77
2022/11/24 08:09:44;;;;;;;;;;;8.50;98.80;;;;;;5110385;28;19935;-78
2022/11/24 08:12:11;;;;;;;;;;;8.60;98.80;;;;;;5102578;28;19938;-78
2022/11/24 08:14:37;;;;;;;;;;;8.60;98.80;;;;;;5109027;28;19932;-78
2022/11/24 08:17:04;;;;;;;;;;;8.60;98.80;;;;;;5108547;28;19935;-78
2022/11/24 08:19:31;;;;;;;;;;;8.50;98.80;;;;;;5109909;28;19932;-77
2022/11/24 08:21:58;;;;;;;;;;;8.60;98.80;;;;;;5107443;28;20422;-77
2022/11/24 08:24:24;;;;;;;;;;;8.50;98.70;;;;;;5105975;28;19928;-77
2022/11/24 08:26:52;;;;;;;;;;;8.60;98.80;;;;;;5111380;28;19928;-77
2022/11/24 08:29:18;;;;;;;;;;;8.50;98.70;;;;;;5109649;28;20414;-77
2022/11/24 08:31:45;;;;;;;;;;;8.50;98.70;;;;;;5107292;28;19927;-78
2022/11/24 08:34:12;;;;;;;;;;;8.50;98.60;;;;;;5104182;28;20447;-77
2022/11/24 08:36:38;;;;;;;;;;;8.50;98.60;;;;;;5107044;28;20375;-77
2022/11/24 08:39:05;;;;;;;;;;;8.50;98.60;;;;;;5106838;28;20044;-77
2022/11/24 08:41:32;;;;;;;;;;;8.50;98.60;;;;;;5108417;28;19935;-77
2022/11/24 08:43:59;;;;;;;;;;;8.60;98.60;;;;;;5108273;28;19979;-78
2022/11/24 08:46:26;;;;;;;;;;;8.50;98.60;;;;;;5101142;28;20311;-78
2022/11/24 08:48:53;;;;;;;;;;;8.50;98.60;;;;;;5106351;28;19983;-76
2022/11/24 08:51:21;;;;;;;;;;;8.50;98.60;;;;;;5104714;28;19935;-78
2022/11/24 08:53:47;;;;;;;;;;;8.50;98.60;;;;;;5101538;28;19935;-78
2022/11/24 08:56:14;;;;;;;;;;;8.50;98.60;;;;;;5104268;28;19927;-77
2022/11/24 08:58:41;;;;;;;;;;;8.50;98.50;;;;;;5101392;28;19935;-77
2022/11/24 09:01:10;;;;;;;;;;;8.50;98.50;;;;;;5104074;28;19939;-78
2022/11/24 09:03:38;;;;;;;;;;;8.50;98.90;;;;;;5107755;28;19934;-79
2022/11/24 09:06:05;;;;;;;;;;;8.50;98.50;;;;;;5101125;28;19928;-78
2022/11/24 09:08:31;;;;;;;;;;;8.50;98.50;;;;;;5101895;28;20081;-79
2022/11/24 09:11:01;;;;;;;;;;;8.50;98.50;;;;;;5106366;28;19953;-78
2022/11/24 09:13:28;;;;;;;;;;;8.50;98.50;;;;;;5104482;28;19931;-77
2022/11/24 09:15:55;;;;;;;;;;;8.50;98.50;;;;;;5104126;28;19928;-77
2022/11/24 09:18:22;;;;;;;;;;;8.50;98.50;;;;;;5102181;28;19932;-77
2022/11/24 09:20:49;;;;;;;;;;;8.50;98.50;;;;;;5106998;28;19928;-78
2022/11/24 09:23:16;;;;;;;;;;;8.50;98.50;;;;;;5101680;28;19928;-78
2022/11/24 09:25:42;;;;;;;;;;;8.50;98.50;;;;;;5106593;28;20501;-78
2022/11/24 09:28:09;;;;;;;;;;;8.50;98.50;;;;;;5108403;28;19927;-77
2022/11/24 09:30:35;;;;;;;;;;;8.50;98.50;;;;;;5102812;28;19935;-78
2022/11/24 09:33:02;;;;;;;;;;;8.50;98.50;;;;;;5106236;28;20010;-77
2022/11/24 09:35:30;;;;;;;;;;;8.50;98.50;;;;;;5108160;28;19935;-78
2022/11/24 09:37:56;;;;;;;;;;;8.50;98.50;;;;;;5109831;28;19935;-77
2022/11/24 09:40:23;;;;;;;;;;;8.50;98.40;;;;;;5109462;28;19928;-78
2022/11/24 09:42:55;;;;;;;;;;;8.50;98.40;;;;;;5106448;28;19928;-78
2022/11/24 09:45:27;;;;;;;;;;;8.60;98.40;;;;;;5106283;28;19932;-77
2022/11/24 09:47:58;;;;;;;;;;;8.60;98.50;;;;;;5108452;28;19932;-77
2022/11/24 09:50:26;;;;;;;;;;;8.60;98.50;;;;;;5112370;28;19928;-77
2022/11/24 09:53:00;;;;;;;;;;;8.60;98.40;;;;;;5113057;28;19935;-78
2022/11/24 09:55:39;;;;;;;;;;;8.60;98.50;;;;;;5113214;28;19924;-78
2022/11/24 09:58:10;;;;;;;;;;;8.60;98.50;;;;;;5108928;28;20383;-77
2022/11/24 10:00:37;;;;;;;;;;;8.60;98.40;;;;;;5104850;28;19930;-78
2022/11/24 10:03:04;;;;;;;;;;;8.60;98.40;;;;;;5109674;28;19927;-78
2022/11/24 10:05:33;;;;;;;;;;;8.60;98.40;;;;;;5109929;28;19928;-78
2022/11/24 10:08:08;;;;;;;;;;;8.60;98.40;;;;;;5112866;28;19927;-78
2022/11/24 10:10:40;;;;;;;;;;;8.60;98.40;;;;;;5111171;28;19934;-78
2022/11/24 10:13:15;;;;;;;;;;;8.60;98.40;;;;;;5107503;28;20427;-78
2022/11/24 10:15:44;;;;;;;;;;;8.60;98.30;;;;;;5110961;28;19950;-77
2022/11/24 10:18:17;;;;;;;;;;;8.70;98.30;;;;;;5113162;28;19934;-78
2022/11/24 10:20:50;;;;;;;;;;;8.70;98.30;;;;;;5106419;28;19932;-78
2022/11/24 10:23:24;;;;;;;;;;;8.80;98.30;;;;;;5113416;28;19928;-77
2022/11/24 10:25:52;;;;;;;;;;;8.80;98.20;;;;;;5109456;28;19928;-78
2022/11/24 10:28:19;;;;;;;;;;;8.90;98.10;;;;;;5110594;28;19928;-78
2022/11/24 10:30:46;;;;;;;;;;;8.90;98.00;;;;;;5109095;28;19927;-77
2022/11/24 10:33:16;;;;;;;;;;;9.00;97.90;;;;;;5108059;28;19928;-79
2022/11/24 10:35:45;;;;;;;;;;;9.00;97.80;;;;;;5107723;28;19935;-77
2022/11/24 10:38:16;;;;;;;;;;;9.10;97.80;;;;;;5106592;28;20462;-78
2022/11/24 10:40:45;;;;;;;;;;;9.10;97.70;;;;;;5104794;28;19931;-77
2022/11/24 10:43:12;;;;;;;;;;;9.20;97.60;;;;;;5105661;28;19958;-77
2022/11/24 10:45:39;;;;;;;;;;;9.20;97.50;;;;;;5106687;28;19928;-77
2022/11/24 10:48:07;;;;;;;;;;;9.30;97.50;;;;;;5108893;28;19935;-77
2022/11/24 10:50:36;;;;;;;;;;;9.30;97.40;;;;;;5108033;28;19997;-76
2022/11/24 10:53:07;;;;;;;;;;;9.30;97.30;;;;;;5108387;28;19928;-77
2022/11/24 10:55:57;;;;;;;;;;;9.30;97.20;;;;;;5099519;28;19927;-77
2022/11/24 10:58:26;;;;;;;;;;;9.40;97.50;;;;;;5098522;28;19935;-78
2022/11/24 11:00:53;;;;;;;;;;;9.40;97.10;;;;;;5105399;28;19927;-79
2022/11/24 11:03:21;;;;;;;;;;;9.40;97.10;;;;;;5112543;28;19928;-78
2022/11/24 11:05:48;;;;;;;;;;;9.40;97.00;;;;;;5108315;28;19935;-79
2022/11/24 11:08:19;;;;;;;;;;;9.40;97.10;;;;;;5108554;28;19934;-79
2022/11/24 11:10:47;;;;;;;;;;;9.40;97.00;;;;;;5112331;28;19927;-79
2022/11/24 11:13:21;;;;;;;;;;;9.50;97.10;;;;;;5106271;28;19932;-79
2022/11/24 11:15:49;;;;;;;;;;;9.40;97.10;;;;;;5110340;28;19928;-78
2022/11/24 11:18:16;;;;;;;;;;;9.40;97.20;;;;;;5111955;28;19935;-79
2022/11/24 11:20:49;;;;;;;;;;;9.40;97.20;;;;;;5109259;28;19927;-78
2022/11/24 11:23:20;;;;;;;;;;;9.40;97.20;;;;;;5111329;28;19927;-79
2022/11/24 11:25:47;;;;;;;;;;;9.40;97.30;;;;;;5112624;28;19928;-78
2022/11/24 11:28:24;;;;;;;;;;;9.40;97.30;;;;;;5110155;28;19989;-79
2022/11/24 11:31:04;;;;;;;;;;;9.40;97.40;;;;;;5109376;28;20283;-78
2022/11/24 11:33:31;;;;;;;;;;;9.40;97.40;;;;;;5108061;28;19927;-79
2022/11/24 11:36:00;;;;;;;;;;;9.40;97.40;;;;;;5107256;28;20018;-79
2022/11/24 11:38:28;;;;;;;;;;;9.40;97.40;;;;;;5100215;28;19932;-79
2022/11/24 11:40:55;;;;;;;;;;;9.40;97.40;;;;;;5106821;28;20427;-78
2022/11/24 11:43:25;;;;;;;;;;;9.50;97.40;;;;;;5099736;28;19935;-79
2022/11/24 11:45:57;;;;;;;;;;;9.40;97.40;;;;;;5102461;28;19927;-78
2022/11/24 11:48:27;;;;;;;;;;;9.50;97.40;;;;;;5107988;28;19934;-78
2022/11/24 11:50:56;;;;;;;;;;;9.40;97.40;;;;;;5107829;28;19931;-78
2022/11/24 11:53:25;;;;;;;;;;;9.40;97.30;;;;;;5106450;28;20486;-78
2022/11/24 11:56:07;;;;;;;;;;;9.40;97.30;;;;;;5110281;28;19939;-80
2022/11/24 11:58:50;;;;;;;;;;;9.50;97.40;;;;;;5106366;28;19935;-79
2022/11/24 12:01:25;;;;;;;;;;;9.40;97.40;;;;;;5105217;28;19928;-79
2022/11/24 12:04:00;;;;;;;;;;;9.40;97.40;;;;;;5108881;28;19971;-79
2022/11/24 12:06:34;;;;;;;;;;;9.50;97.40;;;;;;5112255;28;19928;-78
2022/11/24 12:09:08;;;;;;;;;;;9.50;97.30;;;;;;5109881;28;19934;-79
2022/11/24 12:11:38;;;;;;;;;;;9.60;97.30;;;;;;5110480;28;19927;-79
2022/11/24 12:14:14;;;;;;;;;;;9.60;97.30;;;;;;5107225;28;19927;-79
2022/11/24 12:16:45;;;;;;;;;;;9.70;97.20;;;;;;5102990;28;19934;-79
2022/11/24 12:19:19;;;;;;;;;;;9.80;97.10;;;;;;5108396;28;19928;-79
2022/11/24 12:21:51;;;;;;;;;;;9.80;97.00;;;;;;5099471;28;19931;-79
2022/11/24 12:24:21;;;;;;;;;;;9.90;96.80;;;;;;5103885;28;19950;-80
2022/11/24 12:26:50;;;;;;;;;;;9.90;96.70;;;;;;5101970;28;19967;-79
2022/11/24 12:29:25;;;;;;;;;;;10.00;96.60;;;;;;5095909;28;19928;-80
2022/11/24 12:31:58;;;;;;;;;;;10.00;96.60;;;;;;5082789;28;19928;-78
2022/11/24 12:34:32;;;;;;;;;;;10.00;96.50;;;;;;5086521;28;19935;-78
2022/11/24 12:37:06;;;;;;;;;;;10.00;96.40;;;;;;5083205;28;19963;-79
2022/11/24 12:39:34;;;;;;;;;;;10.10;96.30;;;;;;5090220;28;19932;-80
2022/11/24 12:42:08;;;;;;;;;;;10.10;96.20;;;;;;5090067;28;19924;-80
2022/11/24 12:44:38;;;;;;;;;;;10.10;96.00;;;;;;5088684;28;19935;-79
2022/11/24 12:47:10;;;;;;;;;;;10.10;96.00;;;;;;5081904;28;19928;-78
2022/11/24 12:49:41;;;;;;;;;;;10.10;96.00;;;;;;5089274;28;19928;-79
2022/11/24 12:52:11;;;;;;;;;;;10.10;96.10;;;;;;5072458;28;19939;-78
2022/11/24 12:54:39;;;;;;;;;;;10.10;96.00;;;;;;5079787;28;19928;-78
2022/11/24 12:57:09;;;;;;;;;;;10.10;96.00;;;;;;5083840;28;19928;-80
2022/11/24 12:59:39;;;;;;;;;;;10.10;95.90;;;;;;5086636;28;19928;-79
2022/11/24 13:02:14;;;;;;;;;;;10.10;95.80;;;;;;5080013;28;20006;-78
2022/11/24 13:04:46;;;;;;;;;;;10.10;95.80;;;;;;5087140;28;19928;-79
2022/11/24 13:07:16;;;;;;;;;;;10.10;95.90;;;;;;5089306;28;20019;-78
2022/11/24 13:09:57;;;;;;;;;;;10.10;95.90;;;;;;5084779;28;19932;-80
2022/11/24 13:12:24;;;;;;;;;;;10.00;95.80;;;;;;5075419;28;19928;-79
2022/11/24 13:14:50;;;;;;;;;;;10.10;95.70;;;;;;5089168;28;19935;-78
2022/11/24 13:17:24;;;;;;;;;;;10.00;95.70;;;;;;5084586;28;19974;-79
2022/11/24 13:19:52;;;;;;;;;;;10.10;95.60;;;;;;5081614;28;19951;-79
2022/11/24 13:22:23;;;;;;;;;;;10.10;95.40;;;;;;5079371;28;19935;-79
2022/11/24 13:25:04;;;;;;;;;;;10.10;95.30;;;;;;5087375;28;19935;-79
2022/11/24 13:27:41;;;;;;;;;;;10.10;95.30;;;;;;5083804;28;20104;-79
2022/11/24 13:30:22;;;;;;;;;;;10.20;95.20;;;;;;5092991;28;19935;-79
2022/11/24 13:33:01;;;;;;;;;;;10.20;95.00;;;;;;5095008;28;26082;-78
2022/11/24 13:35:29;;;;;;;;;;;10.30;95.00;;;;;;5107680;28;19962;-78
2022/11/24 13:37:56;;;;;;;;;;;10.30;94.60;;;;;;5110944;28;19993;-80
2022/11/24 13:40:43;;;;;;;;;;;10.30;94.40;;;;;;5107801;28;20399;-79
2022/11/24 13:43:19;;;;;;;;;;;10.40;94.40;;;;;;5096213;28;20001;-78
2022/11/24 13:45:50;;;;;;;;;;;10.40;94.40;;;;;;5106436;28;19928;-79
2022/11/24 13:48:35;;;;;;;;;;;10.50;94.20;;;;;;5105336;28;19928;-78
2022/11/24 13:51:15;;;;;;;;;;;10.50;94.30;;;;;;5103749;28;19935;-78
2022/11/24 13:53:43;;;;;;;;;;;10.50;93.80;;;;;;5106778;28;20667;-79
2022/11/24 13:56:21;;;;;;;;;;;10.60;93.90;;;;;;5104178;28;19939;-78
2022/11/24 13:58:48;;;;;;;;;;;10.60;93.70;;;;;;5103416;28;19936;-78
2022/11/24 14:01:18;;;;;;;;;;;10.70;93.50;;;;;;5102897;28;20192;-78
2022/11/24 14:03:54;;;;;;;;;;;10.70;93.60;;;;;;5107907;28;19928;-79
2022/11/24 14:06:27;;;;;;;;;;;10.70;93.60;;;;;;5110112;28;19932;-79
2022/11/24 14:08:54;;;;;;;;;;;10.80;93.40;;;;;;5108993;28;19935;-79
2022/11/24 14:11:21;;;;;;;;;;;10.70;93.40;;;;;;5108499;28;19973;-78
2022/11/24 14:13:48;;;;;;;;;;;10.80;93.80;;;;;;5109752;28;19927;-79
2022/11/24 14:16:16;;;;;;;;;;;10.70;93.50;;;;;;5107719;28;19935;-79
2022/11/24 14:18:43;;;;;;;;;;;10.70;93.50;;;;;;5108281;28;20387;-79
2022/11/24 14:21:28;;;;;;;;;;;10.70;93.70;;;;;;5103679;28;20407;-78
2022/11/24 14:23:55;;;;;;;;;;;10.70;93.80;;;;;;5097944;28;20392;-78
2022/11/24 14:26:25;;;;;;;;;;;10.70;93.80;;;;;;5097482;28;19935;-79
2022/11/24 14:28:53;;;;;;;;;;;10.70;93.80;;;;;;5098059;28;19928;-78
2022/11/24 14:31:21;;;;;;;;;;;10.60;93.70;;;;;;5105769;28;20353;-79
2022/11/24 14:33:48;;;;;;;;;;;10.60;93.80;;;;;;5110848;28;19927;-79
2022/11/24 14:36:15;;;;;;;;;;;10.60;93.80;;;;;;5112591;28;19928;-78
2022/11/24 14:38:43;;;;;;;;;;;10.50;93.80;;;;;;5108750;28;20391;-79